sensor_id;sensor_type;location;lat;lon;timestamp;temperature;humidity
12089;DHT22;6107;49.078;8.578;2024-01-15T00:00:44;-1.70;99.90
12089;DHT22;6107;49.078;8.578;2024-01-15T00:03:09;-1.70;99.90
12089;DHT22;6107;49.078;8.578;2024-01-15T00:05:36;-1.70;99.90
12089;DHT22;6107;49.078;8.578;2024-01-15T00:08:01;-1.70;99.90
12089;DHT22;6107;49.078;8.578;2024-01-15T00:10:27;-1.60;99.90
12089;DHT22;6107;49.078;8.578;2024-01-15T00:12:53;-1.60;99.90
12089;DHT22;6107;49.078;8.578;2024-01-15T00:15:18;-1.60;99.90
12089;DHT22;6107;49.078;8.578;2024-01-15T00:17:44;-1.70;99.90
12089;DHT22;6107;49.078;8.578;2024-01-15T00:20:10;-1.70;99.90
12089;DHT22;6107;49.078;8.578;2024-01-15T00:22:36;-1.60;99.90
12089;DHT22;6107;49.078;8.578;2024-01-15T00:25:02;-1.60;99.90
12089;DHT22;6107;49.078;8.578;2024-01-15T00:27:28;-1.60;99.90
12089;DHT22;6107;49.078;8.578;2024-01-15T00:29:53;-1.60;99.90
12089;DHT22;6107;49.078;8.578;2024-01-15T00:32:20;-1.50;99.90
12089;DHT22;6107;49.078;8.578;2024-01-15T00:34:46;-1.50;99.90
12089;DHT22;6107;49.078;8.578;2024-01-15T00:37:12;-1.60;99.90
12089;DHT22;6107;49.078;8.578;2024-01-15T00:39:37;-1.50;99.90
12089;DHT22;6107;49.078;8.578;2024-01-15T00:42:03;-1.60;99.90
12089;DHT22;6107;49.078;8.578;2024-01-15T00:44:28;-1.60;99.90
12089;DHT22;6107;49.078;8.578;2024-01-15T00:46:54;-1.60;99.90
12089;DHT22;6107;49.078;8.578;2024-01-15T00:49:20;-1.60;99.90
12089;DHT22;6107;49.078;8.578;2024-01-15T00:51:45;-1.70;99.90
12089;DHT22;6107;49.078;8.578;2024-01-15T00:54:11;-1.60;99.90
12089;DHT22;6107;49.078;8.578;2024-01-15T00:56:37;-1.60;99.90
12089;DHT22;6107;49.078;8.578;2024-01-15T00:59:02;-1.60;99.90
12089;DHT22;6107;49.078;8.578;2024-01-15T01:01:28;-1.60;99.90
12089;DHT22;6107;49.078;8.578;2024-01-15T01:03:54;-1.60;99.90
12089;DHT22;6107;49.078;8.578;2024-01-15T01:06:19;-1.50;99.90
12089;DHT22;6107;49.078;8.578;2024-01-15T01:08:45;-1.60;99.90
12089;DHT22;6107;49.078;8.578;2024-01-15T01:11:17;-1.60;99.90
12089;DHT22;6107;49.078;8.578;2024-01-15T01:13:43;-1.60;99.90
12089;DHT22;6107;49.078;8.578;2024-01-15T01:16:08;-1.50;99.90
12089;DHT22;6107;49.078;8.578;2024-01-15T01:18:34;-1.50;99.90
12089;DHT22;6107;49.078;8.578;2024-01-15T01:21:00;-1.50;99.90
12089;DHT22;6107;49.078;8.578;2024-01-15T01:23:26;-1.60;99.90
12089;DHT22;6107;49.078;8.578;2024-01-15T01:25:51;-1.60;99.90
12089;DHT22;6107;49.078;8.578;2024-01-15T01:28:17;-1.40;99.90
12089;DHT22;6107;49.078;8.578;2024-01-15T01:30:43;-1.60;99.90
12089;DHT22;6107;49.078;8.578;2024-01-15T01:33:08;-1.60;99.90
12089;DHT22;6107;49.078;8.578;2024-01-15T01:35:34;-1.60;99.90
12089;DHT22;6107;49.078;8.578;2024-01-15T01:37:59;-1.60;99.90
12089;DHT22;6107;49.078;8.578;2024-01-15T01:40:25;-1.60;99.90
12089;DHT22;6107;49.078;8.578;2024-01-15T01:42:51;-1.50;99.90
12089;DHT22;6107;49.078;8.578;2024-01-15T01:45:16;-1.40;99.90
12089;DHT22;6107;49.078;8.578;2024-01-15T01:47:42;-1.50;99.90
12089;DHT22;6107;49.078;8.578;2024-01-15T01:50:08;-1.60;99.90
12089;DHT22;6107;49.078;8.578;2024-01-15T01:52:34;-1.40;99.90
12089;DHT22;6107;49.078;8.578;2024-01-15T01:55:02;-1.40;99.90
12089;DHT22;6107;49.078;8.578;2024-01-15T01:57:29;-1.50;99.90
12089;DHT22;6107;49.078;8.578;2024-01-15T01:59:55;-1.40;99.90
12089;DHT22;6107;49.078;8.578;2024-01-15T02:02:21;-1.40;99.90
12089;DHT22;6107;49.078;8.578;2024-01-15T02:04:47;-1.30;99.90
12089;DHT22;6107;49.078;8.578;2024-01-15T02:07:14;-1.50;99.90
12089;DHT22;6107;49.078;8.578;2024-01-15T02:09:44;-1.50;99.90
12089;DHT22;6107;49.078;8.578;2024-01-15T02:12:09;-1.50;99.90
12089;DHT22;6107;49.078;8.578;2024-01-15T02:14:35;-1.40;99.90
12089;DHT22;6107;49.078;8.578;2024-01-15T02:17:01;-1.40;99.90
12089;DHT22;6107;49.078;8.578;2024-01-15T02:19:26;-1.40;99.90
12089;DHT22;6107;49.078;8.578;2024-01-15T02:21:52;-1.40;99.90
12089;DHT22;6107;49.078;8.578;2024-01-15T02:24:18;-1.40;99.90
12089;DHT22;6107;49.078;8.578;2024-01-15T02:26:44;-1.30;99.90
12089;DHT22;6107;49.078;8.578;2024-01-15T02:29:10;-1.40;99.90
12089;DHT22;6107;49.078;8.578;2024-01-15T02:31:37;-1.50;99.90
12089;DHT22;6107;49.078;8.578;2024-01-15T02:34:02;-1.50;99.90
12089;DHT22;6107;49.078;8.578;2024-01-15T02:36:28;-1.40;99.90
12089;DHT22;6107;49.078;8.578;2024-01-15T02:38:53;-1.40;99.90
12089;DHT22;6107;49.078;8.578;2024-01-15T02:41:19;-1.30;99.90
12089;DHT22;6107;49.078;8.578;2024-01-15T02:43:45;-1.40;99.90
12089;DHT22;6107;49.078;8.578;2024-01-15T02:46:10;-1.40;99.90
12089;DHT22;6107;49.078;8.578;2024-01-15T02:48:36;-1.40;99.90
12089;DHT22;6107;49.078;8.578;2024-01-15T02:51:01;-1.40;99.90
12089;DHT22;6107;49.078;8.578;2024-01-15T02:53:27;-1.40;99.90
12089;DHT22;6107;49.078;8.578;2024-01-15T02:55:53;-1.40;99.90
12089;DHT22;6107;49.078;8.578;2024-01-15T02:58:19;-1.40;99.90
12089;DHT22;6107;49.078;8.578;2024-01-15T03:00:44;-1.40;99.90
12089;DHT22;6107;49.078;8.578;2024-01-15T03:03:11;-1.40;99.90
12089;DHT22;6107;49.078;8.578;2024-01-15T03:05:37;-1.30;99.90
12089;DHT22;6107;49.078;8.578;2024-01-15T03:08:03;-1.40;99.90
12089;DHT22;6107;49.078;8.578;2024-01-15T03:10:28;-1.30;99.90
12089;DHT22;6107;49.078;8.578;2024-01-15T03:12:54;-1.30;99.90
12089;DHT22;6107;49.078;8.578;2024-01-15T03:15:20;-1.40;99.90
12089;DHT22;6107;49.078;8.578;2024-01-15T03:17:45;-1.30;99.90
12089;DHT22;6107;49.078;8.578;2024-01-15T03:20:11;-1.30;99.90
12089;DHT22;6107;49.078;8.578;2024-01-15T03:22:37;-1.30;99.90
12089;DHT22;6107;49.078;8.578;2024-01-15T03:25:04;-1.30;99.90
12089;DHT22;6107;49.078;8.578;2024-01-15T03:27:29;-1.40;99.90
12089;DHT22;6107;49.078;8.578;2024-01-15T03:29:55;-1.40;99.90
12089;DHT22;6107;49.078;8.578;2024-01-15T03:32:21;-1.40;99.90
12089;DHT22;6107;49.078;8.578;2024-01-15T03:34:46;-1.30;99.90
12089;DHT22;6107;49.078;8.578;2024-01-15T03:37:13;-1.30;99.90
12089;DHT22;6107;49.078;8.578;2024-01-15T03:39:38;-1.40;99.90
12089;DHT22;6107;49.078;8.578;2024-01-15T03:42:04;-1.40;99.90
12089;DHT22;6107;49.078;8.578;2024-01-15T03:44:30;-1.40;99.90
12089;DHT22;6107;49.078;8.578;2024-01-15T03:46:55;-1.30;99.90
12089;DHT22;6107;49.078;8.578;2024-01-15T03:49:21;-1.30;99.90
12089;DHT22;6107;49.078;8.578;2024-01-15T03:51:47;-1.30;99.90
12089;DHT22;6107;49.078;8.578;2024-01-15T03:54:12;-1.20;99.90
12089;DHT22;6107;49.078;8.578;2024-01-15T03:56:38;-1.30;99.90
12089;DHT22;6107;49.078;8.578;2024-01-15T03:59:04;-1.30;99.90
12089;DHT22;6107;49.078;8.578;2024-01-15T04:01:29;-1.20;99.90
12089;DHT22;6107;49.078;8.578;2024-01-15T04:03:55;-1.20;99.90
12089;DHT22;6107;49.078;8.578;2024-01-15T04:06:21;-1.20;99.90
12089;DHT22;6107;49.078;8.578;2024-01-15T04:08:46;-1.20;99.90
12089;DHT22;6107;49.078;8.578;2024-01-15T04:11:12;-1.10;99.90
12089;DHT22;6107;49.078;8.578;2024-01-15T04:13:38;-1.10;99.90
12089;DHT22;6107;49.078;8.578;2024-01-15T04:16:03;-1.20;99.90
12089;DHT22;6107;49.078;8.578;2024-01-15T04:18:30;-1.20;99.90
12089;DHT22;6107;49.078;8.578;2024-01-15T04:20:55;-1.10;99.90
12089;DHT22;6107;49.078;8.578;2024-01-15T04:23:21;-1.20;99.90
12089;DHT22;6107;49.078;8.578;2024-01-15T04:25:47;-1.20;99.90
12089;DHT22;6107;49.078;8.578;2024-01-15T04:28:12;-1.30;99.90
12089;DHT22;6107;49.078;8.578;2024-01-15T04:30:38;-1.30;99.90
12089;DHT22;6107;49.078;8.578;2024-01-15T04:33:04;-1.30;99.90
12089;DHT22;6107;49.078;8.578;2024-01-15T04:35:30;-1.30;99.90
12089;DHT22;6107;49.078;8.578;2024-01-15T04:37:56;-1.20;99.90
12089;DHT22;6107;49.078;8.578;2024-01-15T04:40:22;-1.20;99.90
12089;DHT22;6107;49.078;8.578;2024-01-15T04:42:48;-1.20;99.90
12089;DHT22;6107;49.078;8.578;2024-01-15T04:45:13;-1.10;99.90
12089;DHT22;6107;49.078;8.578;2024-01-15T04:47:39;-1.10;99.90
12089;DHT22;6107;49.078;8.578;2024-01-15T04:50:05;-1.10;99.90
12089;DHT22;6107;49.078;8.578;2024-01-15T04:52:31;-1.10;99.90
12089;DHT22;6107;49.078;8.578;2024-01-15T04:54:57;-1.20;99.90
12089;DHT22;6107;49.078;8.578;2024-01-15T04:57:22;-1.20;99.90
12089;DHT22;6107;49.078;8.578;2024-01-15T04:59:48;-1.20;99.90
12089;DHT22;6107;49.078;8.578;2024-01-15T05:02:14;-1.10;99.90
12089;DHT22;6107;49.078;8.578;2024-01-15T05:04:39;-1.10;99.90
12089;DHT22;6107;49.078;8.578;2024-01-15T05:07:05;-1.10;99.90
12089;DHT22;6107;49.078;8.578;2024-01-15T05:09:31;-1.10;99.90
12089;DHT22;6107;49.078;8.578;2024-01-15T05:11:56;-1.10;99.90
12089;DHT22;6107;49.078;8.578;2024-01-15T05:14:22;-1.10;99.90
12089;DHT22;6107;49.078;8.578;2024-01-15T05:16:48;-1.00;99.90
12089;DHT22;6107;49.078;8.578;2024-01-15T05:19:14;-1.00;99.90
12089;DHT22;6107;49.078;8.578;2024-01-15T05:21:39;-1.10;99.90
12089;DHT22;6107;49.078;8.578;2024-01-15T05:24:05;-1.10;99.90
12089;DHT22;6107;49.078;8.578;2024-01-15T05:26:30;-1.10;99.90
12089;DHT22;6107;49.078;8.578;2024-01-15T05:28:56;-1.00;99.90
12089;DHT22;6107;49.078;8.578;2024-01-15T05:31:22;-0.90;99.90
12089;DHT22;6107;49.078;8.578;2024-01-15T05:33:48;-0.90;99.90
12089;DHT22;6107;49.078;8.578;2024-01-15T05:36:13;-1.00;99.90
12089;DHT22;6107;49.078;8.578;2024-01-15T05:38:39;-0.80;99.90
12089;DHT22;6107;49.078;8.578;2024-01-15T05:41:05;-1.00;99.90
12089;DHT22;6107;49.078;8.578;2024-01-15T05:43:31;-1.00;99.90
12089;DHT22;6107;49.078;8.578;2024-01-15T05:45:57;-0.90;99.90
12089;DHT22;6107;49.078;8.578;2024-01-15T05:48:22;-1.00;99.90
12089;DHT22;6107;49.078;8.578;2024-01-15T05:50:48;-1.00;99.90
12089;DHT22;6107;49.078;8.578;2024-01-15T05:53:13;-1.00;99.90
12089;DHT22;6107;49.078;8.578;2024-01-15T05:55:40;-0.90;99.90
12089;DHT22;6107;49.078;8.578;2024-01-15T05:58:05;-0.80;99.90
12089;DHT22;6107;49.078;8.578;2024-01-15T06:00:31;-0.80;99.90
12089;DHT22;6107;49.078;8.578;2024-01-15T06:02:58;-0.70;99.90
12089;DHT22;6107;49.078;8.578;2024-01-15T06:05:27;-0.70;99.90
12089;DHT22;6107;49.078;8.578;2024-01-15T06:07:52;-0.70;99.90
12089;DHT22;6107;49.078;8.578;2024-01-15T06:10:18;-0.60;99.90
12089;DHT22;6107;49.078;8.578;2024-01-15T06:12:44;-0.60;99.90
12089;DHT22;6107;49.078;8.578;2024-01-15T06:15:10;-0.70;99.90
12089;DHT22;6107;49.078;8.578;2024-01-15T06:17:36;-0.70;99.90
12089;DHT22;6107;49.078;8.578;2024-01-15T06:20:02;-0.80;99.90
12089;DHT22;6107;49.078;8.578;2024-01-15T06:22:28;-0.80;99.90
12089;DHT22;6107;49.078;8.578;2024-01-15T06:24:54;-0.80;99.90
12089;DHT22;6107;49.078;8.578;2024-01-15T06:27:21;-0.70;99.90
12089;DHT22;6107;49.078;8.578;2024-01-15T06:29:46;-0.80;99.90
12089;DHT22;6107;49.078;8.578;2024-01-15T06:32:15;-0.80;99.90
12089;DHT22;6107;49.078;8.578;2024-01-15T06:34:40;-0.80;99.90
12089;DHT22;6107;49.078;8.578;2024-01-15T06:37:06;-0.80;99.90
12089;DHT22;6107;49.078;8.578;2024-01-15T06:39:32;-0.80;99.90
12089;DHT22;6107;49.078;8.578;2024-01-15T06:41:58;-0.90;99.90
12089;DHT22;6107;49.078;8.578;2024-01-15T06:44:23;-0.80;99.90
12089;DHT22;6107;49.078;8.578;2024-01-15T06:46:49;-0.80;99.90
12089;DHT22;6107;49.078;8.578;2024-01-15T06:49:14;-0.70;99.90
12089;DHT22;6107;49.078;8.578;2024-01-15T06:51:40;-0.60;99.90
12089;DHT22;6107;49.078;8.578;2024-01-15T06:54:07;-0.70;99.90
12089;DHT22;6107;49.078;8.578;2024-01-15T06:56:32;-0.70;99.90
12089;DHT22;6107;49.078;8.578;2024-01-15T06:58:58;-0.70;99.90
12089;DHT22;6107;49.078;8.578;2024-01-15T07:01:24;-0.70;99.90
12089;DHT22;6107;49.078;8.578;2024-01-15T07:03:50;-0.70;99.90
12089;DHT22;6107;49.078;8.578;2024-01-15T07:06:15;-0.60;99.90
12089;DHT22;6107;49.078;8.578;2024-01-15T07:08:42;-0.70;99.90
12089;DHT22;6107;49.078;8.578;2024-01-15T07:11:08;-0.70;99.90
12089;DHT22;6107;49.078;8.578;2024-01-15T07:13:34;-0.60;99.90
12089;DHT22;6107;49.078;8.578;2024-01-15T07:15:59;-0.70;99.90
12089;DHT22;6107;49.078;8.578;2024-01-15T07:18:25;-0.60;99.90
12089;DHT22;6107;49.078;8.578;2024-01-15T07:20:51;-0.60;99.90
12089;DHT22;6107;49.078;8.578;2024-01-15T07:23:16;-0.60;99.90
12089;DHT22;6107;49.078;8.578;2024-01-15T07:25:43;-0.60;99.90
12089;DHT22;6107;49.078;8.578;2024-01-15T07:28:09;-0.70;99.90
12089;DHT22;6107;49.078;8.578;2024-01-15T07:30:34;-0.60;99.90
12089;DHT22;6107;49.078;8.578;2024-01-15T07:33:00;-0.60;99.90
12089;DHT22;6107;49.078;8.578;2024-01-15T07:35:26;-0.60;99.90
12089;DHT22;6107;49.078;8.578;2024-01-15T07:37:51;-0.60;99.90
12089;DHT22;6107;49.078;8.578;2024-01-15T07:40:17;-0.60;99.90
12089;DHT22;6107;49.078;8.578;2024-01-15T07:42:42;-0.60;99.90
12089;DHT22;6107;49.078;8.578;2024-01-15T07:45:09;-0.50;99.90
12089;DHT22;6107;49.078;8.578;2024-01-15T07:47:35;-0.60;99.90
12089;DHT22;6107;49.078;8.578;2024-01-15T07:50:01;-0.50;99.90
12089;DHT22;6107;49.078;8.578;2024-01-15T07:52:27;-0.50;99.90
12089;DHT22;6107;49.078;8.578;2024-01-15T07:54:53;-0.50;99.90
12089;DHT22;6107;49.078;8.578;2024-01-15T07:57:18;-0.50;99.90
12089;DHT22;6107;49.078;8.578;2024-01-15T07:59:44;-0.40;99.90
12089;DHT22;6107;49.078;8.578;2024-01-15T08:02:09;-0.40;99.90
12089;DHT22;6107;49.078;8.578;2024-01-15T08:04:37;-0.40;99.90
12089;DHT22;6107;49.078;8.578;2024-01-15T08:07:03;-0.40;99.90
12089;DHT22;6107;49.078;8.578;2024-01-15T08:09:29;-0.50;99.90
12089;DHT22;6107;49.078;8.578;2024-01-15T08:11:55;-0.40;99.90
12089;DHT22;6107;49.078;8.578;2024-01-15T08:14:21;-0.40;99.90
12089;DHT22;6107;49.078;8.578;2024-01-15T08:16:46;-0.30;99.90
12089;DHT22;6107;49.078;8.578;2024-01-15T08:19:12;-0.30;99.90
12089;DHT22;6107;49.078;8.578;2024-01-15T08:21:37;-0.40;99.90
12089;DHT22;6107;49.078;8.578;2024-01-15T08:24:03;-0.30;99.90
12089;DHT22;6107;49.078;8.578;2024-01-15T08:26:29;-0.30;99.90
12089;DHT22;6107;49.078;8.578;2024-01-15T08:28:55;-0.30;99.90
12089;DHT22;6107;49.078;8.578;2024-01-15T08:31:21;-0.40;99.90
12089;DHT22;6107;49.078;8.578;2024-01-15T08:33:46;-0.40;99.90
12089;DHT22;6107;49.078;8.578;2024-01-15T08:36:12;-0.40;99.90
12089;DHT22;6107;49.078;8.578;2024-01-15T08:38:38;-0.30;99.90
12089;DHT22;6107;49.078;8.578;2024-01-15T08:41:04;-0.30;99.90
12089;DHT22;6107;49.078;8.578;2024-01-15T08:43:30;-0.20;99.90
12089;DHT22;6107;49.078;8.578;2024-01-15T08:46:05;-0.20;99.90
12089;DHT22;6107;49.078;8.578;2024-01-15T08:48:32;-0.30;99.90
12089;DHT22;6107;49.078;8.578;2024-01-15T08:50:58;-0.10;99.90
12089;DHT22;6107;49.078;8.578;2024-01-15T08:53:24;-0.20;99.90
12089;DHT22;6107;49.078;8.578;2024-01-15T08:55:49;-0.20;99.90
12089;DHT22;6107;49.078;8.578;2024-01-15T08:58:15;-0.20;99.90
12089;DHT22;6107;49.078;8.578;2024-01-15T09:00:41;-0.10;99.90
12089;DHT22;6107;49.078;8.578;2024-01-15T09:03:06;-0.20;99.90
12089;DHT22;6107;49.078;8.578;2024-01-15T09:05:34;0.00;99.90
12089;DHT22;6107;49.078;8.578;2024-01-15T09:07:59;0.00;99.90
12089;DHT22;6107;49.078;8.578;2024-01-15T09:10:25;0.00;99.90
12089;DHT22;6107;49.078;8.578;2024-01-15T09:12:50;-0.10;99.90
12089;DHT22;6107;49.078;8.578;2024-01-15T09:15:16;-0.10;99.90
12089;DHT22;6107;49.078;8.578;2024-01-15T09:17:42;0.00;99.90
12089;DHT22;6107;49.078;8.578;2024-01-15T09:20:08;0.10;99.90
12089;DHT22;6107;49.078;8.578;2024-01-15T09:22:35;0.10;99.90
12089;DHT22;6107;49.078;8.578;2024-01-15T09:25:03;0.00;99.90
12089;DHT22;6107;49.078;8.578;2024-01-15T09:27:29;0.00;99.90
12089;DHT22;6107;49.078;8.578;2024-01-15T09:29:55;0.00;99.90
12089;DHT22;6107;49.078;8.578;2024-01-15T09:32:20;0.00;99.90
12089;DHT22;6107;49.078;8.578;2024-01-15T09:34:46;0.10;99.90
12089;DHT22;6107;49.078;8.578;2024-01-15T09:37:13;0.10;99.90
12089;DHT22;6107;49.078;8.578;2024-01-15T09:39:39;0.10;99.90
12089;DHT22;6107;49.078;8.578;2024-01-15T09:42:05;0.10;99.90
12089;DHT22;6107;49.078;8.578;2024-01-15T09:44:31;0.10;99.90
12089;DHT22;6107;49.078;8.578;2024-01-15T09:46:57;0.10;99.90
12089;DHT22;6107;49.078;8.578;2024-01-15T09:49:23;0.20;99.90
12089;DHT22;6107;49.078;8.578;2024-01-15T09:51:49;0.20;99.90
12089;DHT22;6107;49.078;8.578;2024-01-15T09:54:16;0.20;99.90
12089;DHT22;6107;49.078;8.578;2024-01-15T09:56:48;0.20;99.90
12089;DHT22;6107;49.078;8.578;2024-01-15T09:59:18;0.20;99.90
12089;DHT22;6107;49.078;8.578;2024-01-15T10:01:44;0.20;99.90
12089;DHT22;6107;49.078;8.578;2024-01-15T10:04:11;0.30;99.90
12089;DHT22;6107;49.078;8.578;2024-01-15T10:06:38;0.30;99.90
12089;DHT22;6107;49.078;8.578;2024-01-15T10:09:05;0.20;99.90
12089;DHT22;6107;49.078;8.578;2024-01-15T10:11:31;0.30;99.90
12089;DHT22;6107;49.078;8.578;2024-01-15T10:13:57;0.20;99.90
12089;DHT22;6107;49.078;8.578;2024-01-15T10:16:23;0.30;99.90
12089;DHT22;6107;49.078;8.578;2024-01-15T10:18:49;0.20;99.90
12089;DHT22;6107;49.078;8.578;2024-01-15T10:21:15;0.10;99.90
12089;DHT22;6107;49.078;8.578;2024-01-15T10:23:41;0.20;99.90
12089;DHT22;6107;49.078;8.578;2024-01-15T10:26:07;0.10;99.90
12089;DHT22;6107;49.078;8.578;2024-01-15T10:28:33;0.10;99.90
12089;DHT22;6107;49.078;8.578;2024-01-15T10:30:59;0.30;99.90
12089;DHT22;6107;49.078;8.578;2024-01-15T10:33:25;0.40;99.90
12089;DHT22;6107;49.078;8.578;2024-01-15T10:36:00;0.30;99.90
12089;DHT22;6107;49.078;8.578;2024-01-15T10:38:26;0.40;99.90
12089;DHT22;6107;49.078;8.578;2024-01-15T10:40:56;0.40;99.90
12089;DHT22;6107;49.078;8.578;2024-01-15T10:43:22;0.30;99.90
12089;DHT22;6107;49.078;8.578;2024-01-15T10:45:50;0.20;99.90
12089;DHT22;6107;49.078;8.578;2024-01-15T10:48:19;0.40;99.90
12089;DHT22;6107;49.078;8.578;2024-01-15T10:50:46;0.30;99.90
12089;DHT22;6107;49.078;8.578;2024-01-15T10:53:16;0.30;99.90
12089;DHT22;6107;49.078;8.578;2024-01-15T10:55:42;0.20;99.90
12089;DHT22;6107;49.078;8.578;2024-01-15T10:58:09;0.30;99.90
12089;DHT22;6107;49.078;8.578;2024-01-15T11:00:35;0.40;99.90
12089;DHT22;6107;49.078;8.578;2024-01-15T11:03:04;0.20;99.90
12089;DHT22;6107;49.078;8.578;2024-01-15T11:05:44;0.30;99.90
12089;DHT22;6107;49.078;8.578;2024-01-15T11:08:19;0.30;99.90
12089;DHT22;6107;49.078;8.578;2024-01-15T11:10:52;0.20;99.90
12089;DHT22;6107;49.078;8.578;2024-01-15T11:15:59;0.30;99.90
12089;DHT22;6107;49.078;8.578;2024-01-15T11:18:31;0.50;99.90
12089;DHT22;6107;49.078;8.578;2024-01-15T11:23:54;0.50;99.90
12089;DHT22;6107;49.078;8.578;2024-01-15T11:26:37;0.30;99.90
12089;DHT22;6107;49.078;8.578;2024-01-15T11:29:08;0.40;99.90
12089;DHT22;6107;49.078;8.578;2024-01-15T11:34:06;0.50;99.90
12089;DHT22;6107;49.078;8.578;2024-01-15T11:41:59;0.50;99.90
12089;DHT22;6107;49.078;8.578;2024-01-15T11:44:25;0.40;99.90
12089;DHT22;6107;49.078;8.578;2024-01-15T11:47:07;0.40;99.90
12089;DHT22;6107;49.078;8.578;2024-01-15T11:50:13;0.60;99.90
12089;DHT22;6107;49.078;8.578;2024-01-15T11:52:33;0.60;99.90
12089;DHT22;6107;49.078;8.578;2024-01-15T11:55:17;0.60;99.90
12089;DHT22;6107;49.078;8.578;2024-01-15T11:57:53;0.60;99.90
12089;DHT22;6107;49.078;8.578;2024-01-15T12:00:21;0.60;99.90
12089;DHT22;6107;49.078;8.578;2024-01-15T12:02:48;0.60;99.90
12089;DHT22;6107;49.078;8.578;2024-01-15T12:05:15;0.60;99.90
12089;DHT22;6107;49.078;8.578;2024-01-15T12:07:42;0.60;99.90
12089;DHT22;6107;49.078;8.578;2024-01-15T12:12:57;0.60;99.90
12089;DHT22;6107;49.078;8.578;2024-01-15T12:15:24;0.60;99.90
12089;DHT22;6107;49.078;8.578;2024-01-15T12:17:50;0.60;99.90
12089;DHT22;6107;49.078;8.578;2024-01-15T12:20:16;0.60;99.90
12089;DHT22;6107;49.078;8.578;2024-01-15T12:22:42;0.70;99.90
12089;DHT22;6107;49.078;8.578;2024-01-15T12:25:09;0.70;99.90
12089;DHT22;6107;49.078;8.578;2024-01-15T12:27:34;0.80;99.90
12089;DHT22;6107;49.078;8.578;2024-01-15T12:30:00;0.80;99.90
12089;DHT22;6107;49.078;8.578;2024-01-15T12:32:26;0.90;99.90
12089;DHT22;6107;49.078;8.578;2024-01-15T12:34:52;1.40;99.90
12089;DHT22;6107;49.078;8.578;2024-01-15T12:37:21;0.80;99.90
12089;DHT22;6107;49.078;8.578;2024-01-15T12:39:47;0.80;99.90
12089;DHT22;6107;49.078;8.578;2024-01-15T12:42:17;0.80;99.90
12089;DHT22;6107;49.078;8.578;2024-01-15T12:44:44;0.70;99.90
12089;DHT22;6107;49.078;8.578;2024-01-15T12:47:10;0.70;99.90
12089;DHT22;6107;49.078;8.578;2024-01-15T12:49:39;0.70;99.90
12089;DHT22;6107;49.078;8.578;2024-01-15T12:52:09;0.80;99.90
12089;DHT22;6107;49.078;8.578;2024-01-15T12:54:35;0.90;99.90
12089;DHT22;6107;49.078;8.578;2024-01-15T12:57:01;1.00;99.90
12089;DHT22;6107;49.078;8.578;2024-01-15T12:59:26;1.00;99.90
12089;DHT22;6107;49.078;8.578;2024-01-15T13:01:52;1.10;99.90
12089;DHT22;6107;49.078;8.578;2024-01-15T13:04:24;1.00;99.90
12089;DHT22;6107;49.078;8.578;2024-01-15T13:06:51;0.90;99.90
12089;DHT22;6107;49.078;8.578;2024-01-15T13:09:19;1.00;99.90
12089;DHT22;6107;49.078;8.578;2024-01-15T13:11:45;1.00;99.90
12089;DHT22;6107;49.078;8.578;2024-01-15T13:14:12;1.10;99.90
12089;DHT22;6107;49.078;8.578;2024-01-15T13:16:39;1.10;99.90
12089;DHT22;6107;49.078;8.578;2024-01-15T13:19:09;1.00;99.90
12089;DHT22;6107;49.078;8.578;2024-01-15T13:21:42;1.20;99.90
12089;DHT22;6107;49.078;8.578;2024-01-15T13:24:08;1.00;99.90
12089;DHT22;6107;49.078;8.578;2024-01-15T13:26:34;1.00;99.90
12089;DHT22;6107;49.078;8.578;2024-01-15T13:29:01;1.10;99.90
12089;DHT22;6107;49.078;8.578;2024-01-15T13:31:27;1.20;99.90
12089;DHT22;6107;49.078;8.578;2024-01-15T13:33:53;1.00;99.90
12089;DHT22;6107;49.078;8.578;2024-01-15T13:36:20;1.10;99.90
12089;DHT22;6107;49.078;8.578;2024-01-15T13:38:46;1.20;99.90
12089;DHT22;6107;49.078;8.578;2024-01-15T13:41:12;1.10;99.90
12089;DHT22;6107;49.078;8.578;2024-01-15T13:43:38;1.20;99.90
12089;DHT22;6107;49.078;8.578;2024-01-15T13:46:03;1.20;99.90
12089;DHT22;6107;49.078;8.578;2024-01-15T13:48:30;1.10;99.90
12089;DHT22;6107;49.078;8.578;2024-01-15T13:50:57;1.10;99.90
12089;DHT22;6107;49.078;8.578;2024-01-15T13:53:23;1.20;99.90
12089;DHT22;6107;49.078;8.578;2024-01-15T13:55:49;1.30;99.90
12089;DHT22;6107;49.078;8.578;2024-01-15T13:58:15;1.40;99.90
12089;DHT22;6107;49.078;8.578;2024-01-15T14:00:41;1.30;99.90
12089;DHT22;6107;49.078;8.578;2024-01-15T14:03:07;1.40;99.90
12089;DHT22;6107;49.078;8.578;2024-01-15T14:05:32;1.60;99.90
12089;DHT22;6107;49.078;8.578;2024-01-15T14:07:58;1.50;99.90
12089;DHT22;6107;49.078;8.578;2024-01-15T14:10:24;1.40;99.90
12089;DHT22;6107;49.078;8.578;2024-01-15T14:12:49;1.40;99.90
12089;DHT22;6107;49.078;8.578;2024-01-15T14:15:15;1.30;99.90
12089;DHT22;6107;49.078;8.578;2024-01-15T14:17:41;1.40;99.90
12089;DHT22;6107;49.078;8.578;2024-01-15T14:20:06;1.60;99.90
12089;DHT22;6107;49.078;8.578;2024-01-15T14:22:34;1.50;99.90
12089;DHT22;6107;49.078;8.578;2024-01-15T14:25:00;1.40;99.90
12089;DHT22;6107;49.078;8.578;2024-01-15T14:27:26;1.60;99.90
12089;DHT22;6107;49.078;8.578;2024-01-15T14:29:51;1.70;99.90
12089;DHT22;6107;49.078;8.578;2024-01-15T14:32:17;1.50;99.90
12089;DHT22;6107;49.078;8.578;2024-01-15T14:34:43;1.50;99.90
12089;DHT22;6107;49.078;8.578;2024-01-15T14:37:09;1.50;99.90
12089;DHT22;6107;49.078;8.578;2024-01-15T14:39:35;1.30;99.90
12089;DHT22;6107;49.078;8.578;2024-01-15T14:42:01;1.60;99.90
12089;DHT22;6107;49.078;8.578;2024-01-15T14:44:27;1.40;99.90
12089;DHT22;6107;49.078;8.578;2024-01-15T14:46:54;1.40;99.90
12089;DHT22;6107;49.078;8.578;2024-01-15T14:49:21;1.50;99.90
12089;DHT22;6107;49.078;8.578;2024-01-15T14:51:47;1.40;99.90
12089;DHT22;6107;49.078;8.578;2024-01-15T14:54:14;1.40;99.90
12089;DHT22;6107;49.078;8.578;2024-01-15T14:56:40;1.40;99.90
12089;DHT22;6107;49.078;8.578;2024-01-15T14:59:05;4.90;99.90
12089;DHT22;6107;49.078;8.578;2024-01-15T15:01:32;2.90;99.90
12089;DHT22;6107;49.078;8.578;2024-01-15T15:03:57;1.70;99.90
12089;DHT22;6107;49.078;8.578;2024-01-15T15:06:23;1.40;99.90
12089;DHT22;6107;49.078;8.578;2024-01-15T15:08:55;1.30;99.90
12089;DHT22;6107;49.078;8.578;2024-01-15T15:11:21;1.40;99.90
12089;DHT22;6107;49.078;8.578;2024-01-15T15:13:48;1.50;99.90
12089;DHT22;6107;49.078;8.578;2024-01-15T15:16:15;1.30;99.90
12089;DHT22;6107;49.078;8.578;2024-01-15T15:18:41;1.30;99.90
12089;DHT22;6107;49.078;8.578;2024-01-15T15:21:11;1.40;99.90
12089;DHT22;6107;49.078;8.578;2024-01-15T15:23:37;1.50;99.90
12089;DHT22;6107;49.078;8.578;2024-01-15T15:26:04;1.40;99.90
12089;DHT22;6107;49.078;8.578;2024-01-15T15:28:30;1.40;99.90
12089;DHT22;6107;49.078;8.578;2024-01-15T15:30:56;1.30;99.90
12089;DHT22;6107;49.078;8.578;2024-01-15T15:33:22;1.30;99.90
12089;DHT22;6107;49.078;8.578;2024-01-15T15:35:48;1.40;99.90
12089;DHT22;6107;49.078;8.578;2024-01-15T15:38:17;1.40;99.90
12089;DHT22;6107;49.078;8.578;2024-01-15T15:40:42;1.90;99.90
12089;DHT22;6107;49.078;8.578;2024-01-15T15:43:08;2.30;99.90
12089;DHT22;6107;49.078;8.578;2024-01-15T15:45:34;2.80;99.90
12089;DHT22;6107;49.078;8.578;2024-01-15T15:48:01;0.40;99.90
12089;DHT22;6107;49.078;8.578;2024-01-15T15:50:27;1.70;99.90
12089;DHT22;6107;49.078;8.578;2024-01-15T15:52:53;1.40;99.90
12089;DHT22;6107;49.078;8.578;2024-01-15T15:55:18;1.40;99.90
12089;DHT22;6107;49.078;8.578;2024-01-15T15:57:44;1.40;99.90
12089;DHT22;6107;49.078;8.578;2024-01-15T16:00:10;1.40;99.90
12089;DHT22;6107;49.078;8.578;2024-01-15T16:02:36;1.20;99.90